createdAt,value
2023-03-07T00:01:47.605Z,56.72
2023-03-07T00:04:14.470Z,56.68
2023-03-07T00:06:41.318Z,56.72
2023-03-07T00:09:08.133Z,56.88
2023-03-07T00:11:34.796Z,56.61
2023-03-07T00:14:01.796Z,56.86
2023-03-07T00:16:28.554Z,56.85
2023-03-07T00:18:55.569Z,56.63
2023-03-07T00:21:22.942Z,56.75
2023-03-07T00:23:52.648Z,56.72
2023-03-07T00:26:22.236Z,56.68
2023-03-07T00:28:51.403Z,56.81
2023-03-07T00:31:19.920Z,57.04
2023-03-07T00:33:47.179Z,56.89
2023-03-07T00:36:20.440Z,56.96
2023-03-07T00:38:48.129Z,57.13
2023-03-07T00:41:17.694Z,57.04
2023-03-07T00:43:45.756Z,57.03
2023-03-07T00:46:13.485Z,57.11
2023-03-07T00:48:41.012Z,57.21
2023-03-07T00:51:10.197Z,57.31
2023-03-07T00:53:38.055Z,57.28
2023-03-07T00:56:19.250Z,57.36
2023-03-07T00:58:47.133Z,57.56
2023-03-07T01:01:16.779Z,57.50
2023-03-07T01:03:44.597Z,57.33
2023-03-07T01:06:17.782Z,57.37
2023-03-07T01:08:45.004Z,57.42
2023-03-07T01:11:14.222Z,57.44
2023-03-07T01:13:41.626Z,57.62
2023-03-07T01:16:08.830Z,57.45
2023-03-07T01:18:35.763Z,57.54
2023-03-07T01:21:10.156Z,57.76
2023-03-07T01:23:36.872Z,58.00
2023-03-07T01:26:03.788Z,57.69
2023-03-07T01:28:30.425Z,57.82
2023-03-07T01:30:59.678Z,57.65
2023-03-07T01:33:26.540Z,58.02
2023-03-07T01:35:53.355Z,57.88
2023-03-07T01:38:20.205Z,57.85
2023-03-07T01:40:47.162Z,58.00
2023-03-07T01:43:33.001Z,58.02
2023-03-07T01:46:17.678Z,57.72
2023-03-07T01:48:57.365Z,57.97
2023-03-07T01:51:25.301Z,57.97
2023-03-07T01:53:55.686Z,57.99
2023-03-07T01:56:22.473Z,58.25
2023-03-07T01:58:51.323Z,58.05
2023-03-07T02:01:18.903Z,57.86
2023-03-07T02:03:53.725Z,58.03
2023-03-07T02:06:20.724Z,57.93
2023-03-07T02:08:50.024Z,58.01
2023-03-07T02:11:16.962Z,57.96
2023-03-07T02:13:43.785Z,58.24
2023-03-07T02:16:10.522Z,58.18
2023-03-07T02:18:44.010Z,58.22
2023-03-07T02:21:13.403Z,58.14
2023-03-07T02:24:00.319Z,58.18
2023-03-07T02:26:36.376Z,58.27
2023-03-07T02:29:03.646Z,58.41
2023-03-07T02:31:32.196Z,58.30
2023-03-07T02:33:59.866Z,58.19
2023-03-07T02:36:32.524Z,58.27
2023-03-07T02:39:09.614Z,58.54
2023-03-07T02:41:38.318Z,58.24
2023-03-07T02:44:12.137Z,58.38
2023-03-07T02:46:39.337Z,58.25
2023-03-07T02:49:06.091Z,58.35
2023-03-07T02:51:33.205Z,58.42
2023-03-07T02:53:59.946Z,58.65
2023-03-07T02:56:26.626Z,58.63
2023-03-07T02:58:53.299Z,58.55
2023-03-07T03:01:20.137Z,58.63
2023-03-07T03:03:48.007Z,58.47
2023-03-07T03:06:15.019Z,58.59
2023-03-07T03:08:41.928Z,58.33
2023-03-07T03:11:09.052Z,58.42
2023-03-07T03:13:38.656Z,58.81
2023-03-07T03:16:06.735Z,58.48
2023-03-07T03:18:33.965Z,58.70
2023-03-07T03:21:00.638Z,58.84
2023-03-07T03:23:28.627Z,58.67
2023-03-07T03:26:07.805Z,58.40
2023-03-07T03:28:36.089Z,58.42
2023-03-07T03:31:08.961Z,58.40
2023-03-07T03:33:39.267Z,58.44
2023-03-07T03:36:09.770Z,58.55
2023-03-07T03:38:37.421Z,59.09
2023-03-07T03:41:06.644Z,58.97
2023-03-07T03:43:35.705Z,58.99
2023-03-07T03:46:03.705Z,59.01
2023-03-07T03:48:31.149Z,58.97
2023-03-07T03:51:07.035Z,58.85
2023-03-07T03:53:35.834Z,58.73
2023-03-07T03:56:23.394Z,59.04
2023-03-07T03:58:52.203Z,58.95
2023-03-07T04:01:21.959Z,58.98
2023-03-07T04:03:51.181Z,58.97
2023-03-07T04:06:22.338Z,58.89
2023-03-07T04:08:50.446Z,58.92
2023-03-07T04:11:18.646Z,58.93
2023-03-07T04:13:46.547Z,59.05
2023-03-07T04:16:14.196Z,59.22
2023-03-07T04:18:41.262Z,59.17
2023-03-07T04:21:11.165Z,59.11
2023-03-07T04:23:39.193Z,59.33
2023-03-07T04:26:07.707Z,59.25
2023-03-07T04:28:43.144Z,59.44
2023-03-07T04:31:19.439Z,59.12
2023-03-07T04:33:46.761Z,58.85
2023-03-07T04:36:18.359Z,59.03
2023-03-07T04:38:47.253Z,59.35
2023-03-07T04:41:16.958Z,59.37
2023-03-07T04:43:45.334Z,59.55
2023-03-07T04:46:15.045Z,59.30
2023-03-07T04:48:42.350Z,59.29
2023-03-07T04:51:09.187Z,59.14
2023-03-07T04:53:36.281Z,59.29
2023-03-07T04:56:05.415Z,59.14
2023-03-07T04:58:33.846Z,59.42
2023-03-07T05:01:02.549Z,59.50
2023-03-07T05:03:30.330Z,59.44
2023-03-07T05:06:05.804Z,59.73
2023-03-07T05:08:33.552Z,59.56
2023-03-07T05:11:00.834Z,59.52
2023-03-07T05:13:28.580Z,59.75
2023-03-07T05:15:58.291Z,59.46
2023-03-07T05:18:26.745Z,59.66
2023-03-07T05:20:55.169Z,59.58
2023-03-07T05:23:22.216Z,59.72
2023-03-07T05:25:51.147Z,59.85
2023-03-07T05:28:17.954Z,59.47
2023-03-07T05:30:46.133Z,59.90
2023-03-07T05:33:13.916Z,59.75
2023-03-07T05:35:41.750Z,59.62
2023-03-07T05:38:10.790Z,59.57
2023-03-07T05:40:38.038Z,59.72
2023-03-07T05:43:05.350Z,59.71
2023-03-07T05:45:32.959Z,59.99
2023-03-07T05:48:00.884Z,59.70
2023-03-07T05:50:27.798Z,59.58
2023-03-07T05:52:55.072Z,59.76
2023-03-07T05:55:24.944Z,59.94
2023-03-07T05:57:52.084Z,60.09
2023-03-07T06:00:19.731Z,59.84
2023-03-07T06:02:53.434Z,60.29
2023-03-07T06:05:20.290Z,60.23
2023-03-07T06:07:47.020Z,60.11
2023-03-07T06:10:15.346Z,60.42
2023-03-07T06:12:42.303Z,60.08
2023-03-07T06:15:09.615Z,60.25
2023-03-07T06:17:37.798Z,60.13
2023-03-07T06:20:05.263Z,60.10
2023-03-07T06:22:32.185Z,60.27
2023-03-07T06:24:59.762Z,59.74
2023-03-07T06:27:26.673Z,60.09
2023-03-07T06:29:53.900Z,60.54
2023-03-07T06:32:20.678Z,60.59
2023-03-07T06:34:47.461Z,60.39
2023-03-07T06:37:14.223Z,60.41
2023-03-07T06:39:41.600Z,60.59
2023-03-07T06:42:08.578Z,60.28
2023-03-07T06:44:35.565Z,60.36
2023-03-07T06:47:02.684Z,60.24
2023-03-07T06:49:29.797Z,60.20
2023-03-07T06:51:56.789Z,60.41
2023-03-07T06:54:23.812Z,60.14
2023-03-07T06:56:51.739Z,60.11
2023-03-07T06:59:21.805Z,60.16
2023-03-07T07:01:48.969Z,60.30
2023-03-07T07:04:17.870Z,60.28
2023-03-07T07:06:45.137Z,60.19
2023-03-07T07:09:14.279Z,60.31
2023-03-07T07:11:41.341Z,59.92
2023-03-07T07:14:11.676Z,60.06
2023-03-07T07:16:40.031Z,60.32
2023-03-07T07:19:08.617Z,60.09
2023-03-07T07:21:36.586Z,60.25
2023-03-07T07:24:04.839Z,59.93
2023-03-07T07:26:32.522Z,59.99
2023-03-07T07:29:00.115Z,59.94
2023-03-07T07:31:26.774Z,59.96
2023-03-07T07:33:53.620Z,59.91
2023-03-07T07:36:22.886Z,60.06
2023-03-07T07:38:50.849Z,59.92
2023-03-07T07:41:20.429Z,60.00
2023-03-07T07:43:50.230Z,59.86
2023-03-07T07:46:39.650Z,59.96
2023-03-07T07:49:08.560Z,60.04
2023-03-07T07:51:35.611Z,60.01
2023-03-07T07:54:02.336Z,59.88
2023-03-07T07:56:29.149Z,60.06
2023-03-07T07:58:55.883Z,60.08
2023-03-07T08:01:24.691Z,59.85
2023-03-07T08:03:51.478Z,59.91
2023-03-07T08:06:20.512Z,60.06
2023-03-07T08:08:48.179Z,60.15
2023-03-07T08:11:15.889Z,60.10
2023-03-07T08:13:42.820Z,59.93
2023-03-07T08:16:15.040Z,59.79
2023-03-07T08:18:42.646Z,59.93
2023-03-07T08:21:09.552Z,59.92
2023-03-07T08:23:37.040Z,59.94
2023-03-07T08:26:06.352Z,60.13
2023-03-07T08:28:33.632Z,60.00
2023-03-07T08:31:08.084Z,60.02
2023-03-07T08:33:35.230Z,60.09
2023-03-07T08:36:02.389Z,59.87
2023-03-07T08:38:29.300Z,59.81
2023-03-07T08:41:01.046Z,60.02
2023-03-07T08:43:32.569Z,60.09
2023-03-07T08:46:00.148Z,59.94
2023-03-07T08:48:27.701Z,59.74
2023-03-07T08:50:55.347Z,59.92
2023-03-07T08:53:22.987Z,60.10
2023-03-07T08:55:49.881Z,59.87
2023-03-07T08:58:16.759Z,59.75
2023-03-07T09:00:43.783Z,60.07
2023-03-07T09:03:10.699Z,59.88
2023-03-07T09:05:39.177Z,59.92
2023-03-07T09:08:07.520Z,59.81
2023-03-07T09:10:35.236Z,60.17
2023-03-07T09:13:02.206Z,59.74
2023-03-07T09:15:29.108Z,59.62
2023-03-07T09:17:56.019Z,59.88
2023-03-07T09:20:23.178Z,59.96
2023-03-07T09:22:51.694Z,59.87
2023-03-07T09:25:18.931Z,60.11
2023-03-07T09:27:45.808Z,60.17
2023-03-07T09:30:14.226Z,59.95
2023-03-07T09:32:41.182Z,59.97
2023-03-07T09:35:08.448Z,60.02
2023-03-07T09:37:35.346Z,60.07
2023-03-07T09:40:05.836Z,60.06
2023-03-07T09:42:46.651Z,60.00
2023-03-07T09:45:45.915Z,59.93
2023-03-07T09:48:37.280Z,60.11
2023-03-07T09:51:40.135Z,60.23
2023-03-07T09:54:13.831Z,59.77
2023-03-07T09:56:46.348Z,59.34
2023-03-07T09:59:45.573Z,59.08
2023-03-07T10:02:33.916Z,58.87
2023-03-07T10:05:37.709Z,58.49
2023-03-07T10:08:06.163Z,57.95
2023-03-07T10:10:44.366Z,57.42
2023-03-07T10:13:11.115Z,56.85
2023-03-07T10:16:19.125Z,56.42
2023-03-07T10:19:07.701Z,55.96
2023-03-07T10:22:13.431Z,55.96
2023-03-07T10:24:55.086Z,55.80
2023-03-07T10:27:26.808Z,55.42
2023-03-07T10:29:56.471Z,55.34
2023-03-07T10:32:26.135Z,55.19
2023-03-07T10:35:11.179Z,54.89
2023-03-07T10:38:05.169Z,54.79
2023-03-07T10:40:42.997Z,54.83
2023-03-07T10:43:25.413Z,54.52
2023-03-07T10:46:25.968Z,54.57
2023-03-07T10:48:55.838Z,54.23
2023-03-07T10:51:38.138Z,54.41
2023-03-07T10:54:10.733Z,54.30
2023-03-07T10:56:37.497Z,54.32
2023-03-07T10:59:11.238Z,54.20
2023-03-07T11:01:39.449Z,54.08
2023-03-07T11:04:17.771Z,54.11
2023-03-07T11:06:54.485Z,53.85
2023-03-07T11:09:30.678Z,53.71
2023-03-07T11:12:06.189Z,53.75
2023-03-07T11:14:50.605Z,53.73
2023-03-07T11:17:23.317Z,53.59
2023-03-07T11:19:55.156Z,53.68
2023-03-07T11:22:27.224Z,53.34
2023-03-07T11:24:59.956Z,53.23
2023-03-07T11:27:34.724Z,53.80
2023-03-07T11:30:12.991Z,53.70
2023-03-07T11:32:45.385Z,53.91
2023-03-07T11:35:21.513Z,54.16
2023-03-07T11:38:08.730Z,53.89
2023-03-07T11:40:56.543Z,54.01
2023-03-07T11:43:38.579Z,53.96
2023-03-07T11:46:35.613Z,53.98
2023-03-07T11:49:08.530Z,53.99
2023-03-07T11:52:09.252Z,53.90
2023-03-07T11:54:57.525Z,53.79
2023-03-07T11:58:06.109Z,53.80
2023-03-07T12:01:11.984Z,53.92
2023-03-07T12:04:00.801Z,53.58
2023-03-07T12:06:50.383Z,53.50
2023-03-07T12:09:52.408Z,53.58
2023-03-07T12:12:31.307Z,53.58
2023-03-07T12:15:34.294Z,53.64
2023-03-07T12:18:29.982Z,53.53
2023-03-07T12:21:08.610Z,52.97
2023-03-07T12:23:42.414Z,52.84
2023-03-07T12:26:21.231Z,52.77
2023-03-07T12:28:52.160Z,52.85
2023-03-07T12:31:38.053Z,52.83
2023-03-07T12:34:11.050Z,52.69
2023-03-07T12:37:02.761Z,52.94
2023-03-07T12:40:13.035Z,53.07
2023-03-07T12:42:49.629Z,52.99
2023-03-07T12:45:33.789Z,52.97
2023-03-07T12:48:08.530Z,53.03
2023-03-07T12:50:53.328Z,53.02
2023-03-07T12:53:28.796Z,53.01
2023-03-07T12:56:12.958Z,52.85
2023-03-07T12:59:02.476Z,53.01
2023-03-07T13:01:35.168Z,52.90
2023-03-07T13:04:18.823Z,53.01
2023-03-07T13:06:47.028Z,53.00
2023-03-07T13:09:33.535Z,52.95
2023-03-07T13:12:24.292Z,52.95
2023-03-07T13:14:57.992Z,52.94
2023-03-07T13:17:30.753Z,52.94
2023-03-07T13:20:01.605Z,52.93
2023-03-07T13:22:28.331Z,52.73
2023-03-07T13:24:57.070Z,52.71
2023-03-07T13:27:27.903Z,52.89
2023-03-07T13:30:12.868Z,52.93
2023-03-07T13:32:51.417Z,52.69
2023-03-07T13:35:39.398Z,52.94
2023-03-07T13:38:15.344Z,53.03
2023-03-07T13:40:45.214Z,53.00
2023-03-07T13:43:27.050Z,53.01
2023-03-07T13:46:32.132Z,52.90
2023-03-07T13:49:01.106Z,52.97
2023-03-07T13:51:29.810Z,53.07
2023-03-07T13:54:05.468Z,52.81
2023-03-07T13:56:42.314Z,53.00
2023-03-07T13:59:24.660Z,52.85
2023-03-07T14:02:11.654Z,52.60
2023-03-07T14:04:51.888Z,52.90
2023-03-07T14:07:43.203Z,52.62
2023-03-07T14:10:23.055Z,52.28
2023-03-07T14:13:14.076Z,52.42
2023-03-07T14:16:00.978Z,52.48
2023-03-07T14:18:43.621Z,52.65
2023-03-07T14:21:16.575Z,52.48
2023-03-07T14:24:04.716Z,52.67
2023-03-07T14:26:48.583Z,52.59
2023-03-07T14:29:18.085Z,52.66
2023-03-07T14:31:45.826Z,52.43
2023-03-07T14:34:24.237Z,52.48
2023-03-07T14:36:59.476Z,52.40
2023-03-07T14:39:38.680Z,52.25
2023-03-07T14:42:21.508Z,52.30
2023-03-07T14:44:57.315Z,52.35
2023-03-07T14:47:36.679Z,52.54
2023-03-07T14:50:21.835Z,52.43
2023-03-07T14:52:49.716Z,52.67
2023-03-07T14:55:22.601Z,52.64
2023-03-07T14:57:53.170Z,52.87
2023-03-07T15:00:20.462Z,53.11
2023-03-07T15:02:51.292Z,52.75
2023-03-07T15:05:30.306Z,52.79
2023-03-07T15:07:58.157Z,52.88
2023-03-07T15:10:40.702Z,52.48
2023-03-07T15:13:42.830Z,52.29
2023-03-07T15:16:20.974Z,52.21
2023-03-07T15:18:53.102Z,52.28
2023-03-07T15:21:21.940Z,52.25
2023-03-07T15:23:57.451Z,52.19
2023-03-07T15:26:26.572Z,52.45
2023-03-07T15:29:11.041Z,52.07
2023-03-07T15:31:58.987Z,52.21
2023-03-07T15:34:33.604Z,52.31
2023-03-07T15:37:20.338Z,52.34
2023-03-07T15:40:01.204Z,52.24
2023-03-07T15:42:29.561Z,52.20
2023-03-07T15:44:58.715Z,52.30
2023-03-07T15:47:27.312Z,52.33
2023-03-07T15:49:58.287Z,52.43
2023-03-07T15:52:30.492Z,52.67
2023-03-07T15:54:59.337Z,52.54
2023-03-07T15:57:37.212Z,52.38
2023-03-07T16:00:34.765Z,52.41
2023-03-07T16:03:23.995Z,52.34
2023-03-07T16:05:51.575Z,52.37
2023-03-07T16:08:20.123Z,52.51
2023-03-07T16:10:52.876Z,52.53
2023-03-07T16:13:23.154Z,52.42
2023-03-07T16:16:05.832Z,52.61
2023-03-07T16:18:33.442Z,52.61
2023-03-07T16:21:00.608Z,52.66
2023-03-07T16:23:31.033Z,52.46
2023-03-07T16:26:01.646Z,52.59
2023-03-07T16:28:28.506Z,52.45
2023-03-07T16:30:55.593Z,52.52
2023-03-07T16:33:22.311Z,52.57
2023-03-07T16:35:49.142Z,52.50
2023-03-07T16:38:15.850Z,52.37
2023-03-07T16:40:44.812Z,52.45
2023-03-07T16:43:36.486Z,52.31
2023-03-07T16:46:05.885Z,52.39
2023-03-07T16:48:33.228Z,52.62
2023-03-07T16:50:59.980Z,52.56
2023-03-07T16:53:26.748Z,52.44
2023-03-07T16:55:55.969Z,52.33
2023-03-07T16:58:27.547Z,52.74
2023-03-07T17:00:54.600Z,52.55
2023-03-07T17:03:21.618Z,52.64
2023-03-07T17:05:48.315Z,52.42
2023-03-07T17:08:15.046Z,52.42
2023-03-07T17:10:44.661Z,52.40
2023-03-07T17:13:17.519Z,52.50
2023-03-07T17:15:45.721Z,52.39
2023-03-07T17:18:13.144Z,52.35
2023-03-07T17:20:40.853Z,52.54
2023-03-07T17:23:07.902Z,52.62
2023-03-07T17:25:35.377Z,52.40
2023-03-07T17:28:12.594Z,52.53
2023-03-07T17:30:43.013Z,52.55
2023-03-07T17:33:11.345Z,52.78
2023-03-07T17:35:38.192Z,52.72
2023-03-07T17:38:05.004Z,52.69
2023-03-07T17:40:32.062Z,52.70
2023-03-07T17:42:59.357Z,52.58
2023-03-07T17:45:26.260Z,52.57
2023-03-07T17:47:54.528Z,52.78
2023-03-07T17:50:25.678Z,52.92
2023-03-07T17:52:54.628Z,53.01
2023-03-07T17:55:24.924Z,52.83
2023-03-07T17:57:52.283Z,52.97
2023-03-07T18:00:20.983Z,52.81
2023-03-07T18:02:48.364Z,52.62
2023-03-07T18:05:15.351Z,52.80
2023-03-07T18:07:42.444Z,52.86
2023-03-07T18:10:11.024Z,53.16
2023-03-07T18:12:39.391Z,53.04
2023-03-07T18:15:19.884Z,52.74
2023-03-07T18:17:48.750Z,52.58
2023-03-07T18:20:18.309Z,52.89
2023-03-07T18:22:45.402Z,52.68
2023-03-07T18:25:14.604Z,52.66
2023-03-07T18:27:41.416Z,52.69
2023-03-07T18:30:09.337Z,52.73
2023-03-07T18:32:36.038Z,52.67
2023-03-07T18:35:02.872Z,52.55
2023-03-07T18:37:29.513Z,52.43
2023-03-07T18:39:56.312Z,52.37
2023-03-07T18:42:23.183Z,52.42
2023-03-07T18:44:50.082Z,52.70
2023-03-07T18:47:17.126Z,52.72
2023-03-07T18:49:44.029Z,52.84
2023-03-07T18:52:10.811Z,52.50
2023-03-07T18:54:37.717Z,52.70
2023-03-07T18:57:04.569Z,52.78
2023-03-07T18:59:31.391Z,52.55
2023-03-07T19:02:02.950Z,52.76
2023-03-07T19:04:31.414Z,52.55
2023-03-07T19:06:59.717Z,52.80
2023-03-07T19:09:27.005Z,52.65
2023-03-07T19:11:53.960Z,52.59
2023-03-07T19:14:39.362Z,52.79
2023-03-07T19:17:06.202Z,52.74
2023-03-07T19:19:54.085Z,52.86
2023-03-07T19:22:25.865Z,52.78
2023-03-07T19:24:53.990Z,52.86
2023-03-07T19:27:20.869Z,52.80
2023-03-07T19:29:47.514Z,52.84
2023-03-07T19:32:14.363Z,52.89
2023-03-07T19:34:41.047Z,52.98
2023-03-07T19:37:07.842Z,52.84
2023-03-07T19:39:34.760Z,52.97
2023-03-07T19:42:01.426Z,52.77
2023-03-07T19:44:28.177Z,53.11
2023-03-07T19:46:55.319Z,52.88
2023-03-07T19:49:23.347Z,52.89
2023-03-07T19:51:50.028Z,52.91
2023-03-07T19:54:16.688Z,53.00
2023-03-07T19:56:45.135Z,52.71
2023-03-07T19:59:12.316Z,52.78
2023-03-07T20:01:52.501Z,52.93
2023-03-07T20:04:19.300Z,52.88
2023-03-07T20:06:46.047Z,52.71
2023-03-07T20:09:13.646Z,52.86
2023-03-07T20:11:43.290Z,52.81
2023-03-07T20:14:11.728Z,53.01
2023-03-07T20:16:38.588Z,52.83
2023-03-07T20:19:08.610Z,52.94
2023-03-07T20:21:36.458Z,52.94
2023-03-07T20:24:03.529Z,52.96
2023-03-07T20:26:35.692Z,53.21
2023-03-07T20:29:22.905Z,52.88
2023-03-07T20:32:08.155Z,53.01
2023-03-07T20:34:36.046Z,52.90
2023-03-07T20:37:03.482Z,52.84
2023-03-07T20:39:30.229Z,52.97
2023-03-07T20:41:56.983Z,52.89
2023-03-07T20:44:23.645Z,52.88
2023-03-07T20:46:50.540Z,52.85
2023-03-07T20:49:17.407Z,52.94
2023-03-07T20:51:44.464Z,52.84
2023-03-07T20:54:14.746Z,53.10
2023-03-07T20:56:42.466Z,53.00
2023-03-07T20:59:12.523Z,53.04
2023-03-07T21:01:40.200Z,53.07
2023-03-07T21:04:11.078Z,53.03
2023-03-07T21:06:46.016Z,53.11
2023-03-07T21:09:14.770Z,53.22
2023-03-07T21:11:46.899Z,52.99
2023-03-07T21:14:15.004Z,53.23
2023-03-07T21:16:43.707Z,53.05
2023-03-07T21:19:11.572Z,53.56
2023-03-07T21:21:38.962Z,53.68
2023-03-07T21:24:05.923Z,54.10
2023-03-07T21:26:36.282Z,54.24
2023-03-07T21:29:04.304Z,54.49
2023-03-07T21:31:33.628Z,54.33
2023-03-07T21:34:02.518Z,54.50
2023-03-07T21:36:31.513Z,54.79
2023-03-07T21:38:59.443Z,54.81
2023-03-07T21:41:26.834Z,54.99
2023-03-07T21:43:54.983Z,54.95
2023-03-07T21:46:22.334Z,55.07
2023-03-07T21:48:49.201Z,55.27
2023-03-07T21:51:16.124Z,55.52
2023-03-07T21:53:42.992Z,55.74
2023-03-07T21:56:12.350Z,55.39
2023-03-07T21:58:39.761Z,55.59
2023-03-07T22:01:18.483Z,55.86
2023-03-07T22:03:45.338Z,55.88
2023-03-07T22:06:14.683Z,55.78
2023-03-07T22:08:42.142Z,55.99
2023-03-07T22:11:11.407Z,56.04
2023-03-07T22:13:40.362Z,56.13
2023-03-07T22:16:11.521Z,56.27
2023-03-07T22:18:38.544Z,56.32
2023-03-07T22:21:14.049Z,56.35
2023-03-07T22:23:41.720Z,56.22
2023-03-07T22:26:28.351Z,56.34
2023-03-07T22:28:55.613Z,56.57
2023-03-07T22:31:22.917Z,56.50
2023-03-07T22:33:50.083Z,56.62
2023-03-07T22:36:17.050Z,56.58
2023-03-07T22:38:44.684Z,56.58
2023-03-07T22:41:14.503Z,56.71
2023-03-07T22:43:41.882Z,56.74
2023-03-07T22:46:09.356Z,56.87
2023-03-07T22:48:36.076Z,56.94
2023-03-07T22:51:03.359Z,56.90
2023-03-07T22:53:33.719Z,56.96
2023-03-07T22:56:01.519Z,57.26
2023-03-07T22:58:29.607Z,57.20
2023-03-07T23:00:56.475Z,57.12
2023-03-07T23:03:23.523Z,57.36
2023-03-07T23:05:50.406Z,57.37
2023-03-07T23:08:17.184Z,57.33
2023-03-07T23:10:44.038Z,57.69
2023-03-07T23:13:10.684Z,57.45
2023-03-07T23:15:41.078Z,57.57
2023-03-07T23:18:08.328Z,57.67
2023-03-07T23:20:37.487Z,57.52
2023-03-07T23:23:04.528Z,57.62
2023-03-07T23:25:32.975Z,57.80
2023-03-07T23:27:59.706Z,57.95
2023-03-07T23:30:26.612Z,57.90
2023-03-07T23:32:54.673Z,57.99
2023-03-07T23:35:21.338Z,58.10
2023-03-07T23:37:48.312Z,58.15
2023-03-07T23:40:15.005Z,58.12
2023-03-07T23:42:41.755Z,58.47
2023-03-07T23:45:09.164Z,58.04
2023-03-07T23:47:35.994Z,58.23
2023-03-07T23:50:02.834Z,58.37
2023-03-07T23:52:29.648Z,58.38
2023-03-07T23:54:56.556Z,58.30
2023-03-07T23:57:23.773Z,58.33
2023-03-07T23:59:50.969Z,58.54
